Time;durP1;ratioP1;P1;durP2;ratioP2;P2;SDS_P1;SDS_P2;PMS_P1;PMS_P2;Temp;Humidity;BMP_temperature;BMP_pressure;BME280_temperature;BME280_humidity;BME280_pressure;Samples;Min_cycle;Max_cycle;Signal;HPM_P1;HPM_P2
2021/06/12 00:02:04;;;;;;;34.58;14.68;;;;;;;17.36;51.19;101649.13;5037140;28;20493;-68
2021/06/12 00:04:30;;;;;;;29.70;15.32;;;;;;;17.29;51.80;101646.88;5051334;28;20052;-66
2021/06/12 00:06:58;;;;;;;21.17;13.85;;;;;;;17.52;51.31;101649.13;5052195;28;20025;-68
2021/06/12 00:09:23;;;;;;;23.42;14.25;;;;;;;17.35;51.28;101646.56;5052426;28;20227;-67
2021/06/12 00:11:49;;;;;;;30.75;14.93;;;;;;;17.17;51.98;101636.06;5051676;28;20021;-67
2021/06/12 00:14:14;;;;;;;27.75;14.65;;;;;;;16.85;53.20;101643.16;5051694;28;20440;-69
2021/06/12 00:16:40;;;;;;;33.33;15.05;;;;;;;17.15;52.18;101645.88;5033993;28;20072;-67
2021/06/12 00:19:05;;;;;;;28.42;14.88;;;;;;;17.31;51.78;101645.84;5049761;28;20040;-68
2021/06/12 00:21:31;;;;;;;24.23;14.77;;;;;;;17.35;51.60;101644.75;5032490;28;20029;-69
2021/06/12 00:23:56;;;;;;;31.35;16.20;;;;;;;16.99;52.60;101643.22;5052164;28;20047;-68
2021/06/12 00:26:22;;;;;;;31.48;16.33;;;;;;;16.66;53.55;101645.03;5050765;28;20123;-69
2021/06/12 00:28:47;;;;;;;29.75;16.27;;;;;;;16.79;53.37;101646.97;5048878;28;20033;-70
2021/06/12 00:31:13;;;;;;;26.70;15.77;;;;;;;16.88;53.00;101642.13;5048633;28;20108;-68
2021/06/12 00:33:38;;;;;;;31.38;16.33;;;;;;;17.00;53.03;101641.44;5049974;28;20694;-66
2021/06/12 00:36:04;;;;;;;27.23;16.15;;;;;;;17.12;52.52;101640.78;5040489;28;20676;-72
2021/06/12 00:38:29;;;;;;;36.08;16.63;;;;;;;16.84;53.30;101644.06;5037102;28;20101;-69
2021/06/12 00:40:55;;;;;;;29.38;16.45;;;;;;;16.63;53.76;101641.63;5038201;28;20033;-68
2021/06/12 00:43:20;;;;;;;31.55;17.00;;;;;;;16.96;53.57;101645.22;5053510;28;20056;-68
2021/06/12 00:45:46;;;;;;;32.80;17.05;;;;;;;16.77;53.81;101638.28;5055892;28;20099;-68
2021/06/12 00:48:13;;;;;;;32.70;15.98;;;;;;;16.81;53.78;101637.19;5055196;28;20036;-69
2021/06/12 00:50:39;;;;;;;31.88;15.20;;;;;;;16.98;53.10;101640.69;5038503;28;20033;-69
2021/06/12 00:53:05;;;;;;;32.63;15.98;;;;;;;17.12;53.12;101639.94;5054658;28;20112;-69
2021/06/12 00:55:30;;;;;;;30.73;15.75;;;;;;;17.05;52.85;101634.13;5055670;28;20635;-68
2021/06/12 00:57:57;;;;;;;32.92;17.48;;;;;;;16.92;53.66;101638.38;5053358;28;20037;-68
2021/06/12 01:00:23;;;;;;;28.38;16.48;;;;;;;16.58;54.02;101629.63;5057358;28;20032;-68
2021/06/12 01:02:51;;;;;;;30.83;15.57;;;;;;;16.51;54.44;101638.78;5053629;28;20533;-67
2021/06/12 01:05:19;;;;;;;26.80;14.70;;;;;;;16.59;54.15;101636.59;5054565;28;20033;-72
2021/06/12 01:07:45;;;;;;;36.20;16.17;;;;;;;16.62;54.06;101631.16;5054052;28;20037;-73
2021/06/12 01:10:16;;;;;;;32.97;15.50;;;;;;;16.58;54.31;101637.53;5055371;28;20085;-73
2021/06/12 01:13:01;;;;;;;36.53;17.05;;;;;;;16.33;54.76;101630.94;5056433;28;20127;-73
2021/06/12 01:15:37;;;;;;;30.75;17.33;;;;;;;16.23;55.03;101626.22;5056121;28;20546;-67
2021/06/12 01:18:08;;;;;;;30.08;16.55;;;;;;;16.42;54.56;101627.81;5053039;28;20073;-71
2021/06/12 01:20:47;;;;;;;30.48;16.63;;;;;;;16.02;55.69;101626.41;5058009;28;20034;-71
2021/06/12 01:24:03;;;;;;;34.65;16.00;;;;;;;16.25;55.03;101624.34;5039858;28;20044;-72
2021/06/12 01:26:31;;;;;;;40.50;18.42;;;;;;;16.53;53.93;101611.41;5057023;28;20155;-71
2021/06/12 01:29:19;;;;;;;31.23;17.85;;;;;;;16.54;53.78;101612.25;5054322;28;20037;-71
2021/06/12 01:31:46;;;;;;;30.92;17.23;;;;;;;16.36;54.18;101617.56;5035759;28;20698;-71
2021/06/12 01:34:12;;;;;;;34.17;17.85;;;;;;;16.36;54.30;101620.22;5054938;28;20028;-72
2021/06/12 01:36:38;;;;;;;30.85;18.02;;;;;;;16.73;53.60;101623.53;5055979;28;20053;-72
2021/06/12 01:39:04;;;;;;;39.28;17.95;;;;;;;16.72;53.35;101627.09;5055582;28;20086;-72
2021/06/12 01:41:31;;;;;;;36.15;17.80;;;;;;;16.68;53.63;101624.69;5052096;28;20029;-68
2021/06/12 01:43:59;;;;;;;33.17;17.65;;;;;;;16.71;53.46;101617.47;5054919;28;20044;-67
2021/06/12 01:46:26;;;;;;;36.20;19.05;;;;;;;16.39;54.42;101609.47;5053154;28;20161;-68
2021/06/12 01:48:52;;;;;;;38.40;18.83;;;;;;;16.68;53.54;101609.69;5043995;28;20029;-68
2021/06/12 01:51:19;;;;;;;34.10;17.67;;;;;;;16.74;53.56;101603.25;5050016;28;20167;-69
2021/06/12 01:53:46;;;;;;;35.22;17.27;;;;;;;16.70;53.53;101599.91;5052997;28;20033;-68
2021/06/12 01:56:13;;;;;;;39.17;17.85;;;;;;;16.45;53.89;101596.91;5053163;28;20063;-67
2021/06/12 01:58:42;;;;;;;36.42;17.40;;;;;;;16.71;53.07;101585.81;5036035;28;20162;-68
2021/06/12 02:01:13;;;;;;;33.75;17.52;;;;;;;16.85;53.08;101574.50;5052995;28;20456;-67
2021/06/12 02:03:41;;;;;;;35.20;17.45;;;;;;;16.70;53.29;101570.88;5045159;28;20665;-68
2021/06/12 02:06:10;;;;;;;32.33;16.75;;;;;;;16.78;52.95;101584.56;5021151;28;20063;-67
2021/06/12 02:08:36;;;;;;;37.72;19.13;;;;;;;16.67;53.24;101578.97;5053929;28;20040;-66
2021/06/12 02:11:06;;;;;;;37.60;19.75;;;;;;;16.55;54.18;101583.13;5049185;28;20036;-68
2021/06/12 02:13:32;;;;;;;34.75;18.58;;;;;;;16.32;54.71;101581.72;5053353;28;20032;-67
2021/06/12 02:15:58;;;;;;;34.70;17.65;;;;;;;16.65;53.86;101572.94;5053726;28;20037;-68
2021/06/12 02:18:26;;;;;;;34.90;18.58;;;;;;;16.19;54.77;101580.66;5052990;28;20024;-68
2021/06/12 02:20:53;;;;;;;35.72;19.08;;;;;;;16.39;54.41;101574.34;5053119;28;20549;-67
2021/06/12 02:23:19;;;;;;;33.63;19.63;;;;;;;16.26;54.69;101570.66;5055252;28;20037;-68
2021/06/12 02:25:47;;;;;;;36.55;18.67;;;;;;;16.26;54.79;101566.22;5051730;28;20052;-69
2021/06/12 02:28:17;;;;;;;43.50;19.75;;;;;;;15.80;56.19;101566.81;5032779;28;20102;-67
2021/06/12 02:30:53;;;;;;;45.07;20.20;;;;;;;16.07;55.41;101565.50;5051591;28;20036;-67
2021/06/12 02:33:21;;;;;;;43.95;19.98;;;;;;;16.16;54.61;101559.75;5051268;28;20397;-66
2021/06/12 02:35:47;;;;;;;39.90;19.77;;;;;;;16.22;54.88;101551.50;5053249;28;20029;-66
2021/06/12 02:38:12;;;;;;;36.38;19.15;;;;;;;16.11;54.86;101561.78;5035554;28;20526;-66
2021/06/12 02:40:41;;;;;;;49.42;22.60;;;;;;;15.97;55.61;101571.22;5053136;28;20020;-66
2021/06/12 02:43:06;;;;;;;36.22;19.70;;;;;;;15.79;55.83;101566.88;5051211;28;20032;-68
2021/06/12 02:45:32;;;;;;;39.17;18.95;;;;;;;16.07;55.00;101569.00;5053404;28;20440;-67
2021/06/12 02:48:01;;;;;;;38.63;18.58;;;;;;;15.36;56.90;101561.16;5053334;28;20033;-67
2021/06/12 02:50:31;;;;;;;32.83;17.65;;;;;;;15.96;55.62;101547.56;5050306;28;20481;-67
2021/06/12 02:53:01;;;;;;;39.63;21.37;;;;;;;15.64;56.39;101542.19;5050175;28;20091;-67
2021/06/12 02:55:29;;;;;;;43.30;19.42;;;;;;;15.83;55.71;101543.88;5032099;28;20120;-67
2021/06/12 02:57:55;;;;;;;38.60;18.10;;;;;;;16.05;55.17;101539.22;5048281;28;20072;-67
2021/06/12 03:00:22;;;;;;;39.22;19.75;;;;;;;16.17;54.74;101550.88;5038312;28;20056;-70
2021/06/12 03:02:49;;;;;;;38.58;18.80;;;;;;;16.02;54.93;101556.97;5052976;28;20646;-69
2021/06/12 03:05:20;;;;;;;39.42;19.67;;;;;;;15.88;55.33;101555.03;5052969;28;20177;-71
2021/06/12 03:07:51;;;;;;;41.42;20.05;;;;;;;15.93;54.91;101548.59;5052000;28;20039;-67
2021/06/12 03:10:18;;;;;;;43.00;18.55;;;;;;;15.87;55.42;101554.16;5053359;28;20032;-70
2021/06/12 03:12:46;;;;;;;41.28;18.35;;;;;;;16.03;54.70;101556.03;5050653;28;20627;-71
2021/06/12 03:15:12;;;;;;;34.92;18.42;;;;;;;16.25;54.41;101553.97;5052221;28;20400;-71
2021/06/12 03:17:38;;;;;;;42.22;19.70;;;;;;;16.06;54.49;101559.34;5052195;28;20036;-70
2021/06/12 03:20:06;;;;;;;41.55;20.80;;;;;;;16.20;54.61;101556.88;5051774;28;20044;-69
2021/06/12 03:22:33;;;;;;;40.67;18.67;;;;;;;16.17;54.34;101561.44;5083626;22;20035;-68
2021/06/12 03:25:01;;;;;;;34.38;19.00;;;;;;;16.11;55.09;101562.63;5092573;28;20476;-69
2021/06/12 03:27:27;;;;;;;36.97;18.83;;;;;;;15.82;55.45;101565.88;5070885;28;20192;-68
2021/06/12 03:29:53;;;;;;;39.03;19.10;;;;;;;16.34;54.36;101565.81;5075731;28;20127;-68
2021/06/12 03:32:18;;;;;;;37.83;19.63;;;;;;;16.41;54.47;101559.28;5067480;28;20028;-69
2021/06/12 03:34:45;;;;;;;43.63;18.02;;;;;;;16.48;53.62;101565.06;5070809;28;20059;-69
2021/06/12 03:37:12;;;;;;;37.92;18.38;;;;;;;16.34;54.28;101565.81;5074248;28;20040;-69
2021/06/12 03:39:37;;;;;;;41.15;20.30;;;;;;;16.33;54.04;101557.06;5069333;28;20024;-68
2021/06/12 03:42:04;;;;;;;37.50;18.25;;;;;;;16.49;53.46;101567.66;5087890;28;20092;-70
2021/06/12 03:44:30;;;;;;;38.15;19.73;;;;;;;16.40;53.67;101569.00;5095187;28;20041;-70
2021/06/12 03:46:56;;;;;;;33.10;18.75;;;;;;;16.26;53.83;101560.94;5077356;28;20045;-70
2021/06/12 03:49:21;;;;;;;40.38;20.52;;;;;;;16.41;53.84;101546.94;5071098;28;20044;-68
2021/06/12 03:51:48;;;;;;;39.75;18.60;;;;;;;16.50;53.56;101547.38;5055712;28;20115;-69
2021/06/12 03:54:15;;;;;;;41.42;18.83;;;;;;;16.54;53.38;101562.13;5061808;28;20079;-69
2021/06/12 03:56:41;;;;;;;39.40;19.88;;;;;;;16.13;54.51;101559.88;5075375;28;20044;-69
2021/06/12 03:59:08;;;;;;;35.80;19.60;;;;;;;16.26;54.01;101560.94;5088810;28;20056;-70
2021/06/12 04:01:34;;;;;;;36.28;17.77;;;;;;;16.23;54.06;101553.22;5075087;28;20474;-69
2021/06/12 04:04:00;;;;;;;41.72;20.40;;;;;;;16.45;53.43;101549.44;5093891;28;20040;-69
2021/06/12 04:06:26;;;;;;;37.78;19.00;;;;;;;16.42;53.47;101543.38;5069930;28;20086;-70
2021/06/12 04:08:51;;;;;;;34.80;19.38;;;;;;;16.04;54.57;101534.88;5072184;28;20085;-68
2021/06/12 04:11:17;;;;;;;36.03;19.25;;;;;;;15.93;55.42;101529.25;5069804;28;20021;-70
2021/06/12 04:13:43;;;;;;;39.03;20.63;;;;;;;16.38;53.86;101539.19;5073243;28;20040;-68
2021/06/12 04:16:10;;;;;;;39.72;20.38;;;;;;;16.36;53.91;101538.44;5077167;28;20051;-69
2021/06/12 04:18:35;;;;;;;38.38;19.70;;;;;;;16.55;53.51;101543.53;5077522;28;20051;-68
2021/06/12 04:21:03;;;;;;;37.67;20.75;;;;;;;16.38;53.60;101543.63;5076189;28;20029;-71
2021/06/12 04:23:29;;;;;;;40.83;20.75;;;;;;;16.20;53.86;101554.22;5072348;28;20089;-68
2021/06/12 04:25:54;;;;;;;45.28;21.02;;;;;;;16.39;53.97;101563.78;5078635;28;20055;-70
2021/06/12 04:28:20;;;;;;;41.85;20.80;;;;;;;16.37;54.19;101565.66;5075264;28;20111;-68
2021/06/12 04:30:45;;;;;;;39.60;19.73;;;;;;;16.37;54.01;101563.84;5077187;28;20036;-68
2021/06/12 04:33:11;;;;;;;32.95;19.50;;;;;;;16.23;54.42;101553.22;5072756;28;20070;-70
2021/06/12 04:35:37;;;;;;;33.10;19.50;;;;;;;16.16;54.69;101554.47;5075182;28;20033;-70
2021/06/12 04:38:03;;;;;;;38.17;19.52;;;;;;;16.46;53.50;101557.22;5079805;28;20514;-70
2021/06/12 04:40:31;;;;;;;38.25;19.10;;;;;;;16.56;52.99;101561.09;5083310;28;20032;-68
2021/06/12 04:42:57;;;;;;;40.65;19.63;;;;;;;16.25;54.73;101563.69;5077968;28;20053;-68
2021/06/12 04:45:23;;;;;;;34.42;19.15;;;;;;;16.52;53.85;101571.91;5077984;28;20040;-69
2021/06/12 04:47:49;;;;;;;34.92;19.67;;;;;;;16.38;54.15;101568.22;5074239;28;20119;-69
2021/06/12 04:50:15;;;;;;;37.90;19.55;;;;;;;16.59;53.27;101570.63;5061391;28;20047;-68
2021/06/12 04:52:41;;;;;;;40.75;19.98;;;;;;;16.20;54.39;101561.28;5074521;28;20024;-67
2021/06/12 04:55:08;;;;;;;36.25;18.98;;;;;;;16.57;53.87;101568.06;5083109;28;20098;-68
2021/06/12 04:57:34;;;;;;;42.38;21.27;;;;;;;16.55;53.94;101579.63;5076167;28;20070;-69
2021/06/12 04:59:59;;;;;;;35.22;19.50;;;;;;;16.29;54.53;101581.91;5077759;28;20036;-69
2021/06/12 05:02:25;;;;;;;35.15;19.67;;;;;;;16.06;55.38;101575.19;5079694;28;20028;-70
2021/06/12 05:04:51;;;;;;;33.92;18.80;;;;;;;15.74;55.63;101563.63;5060014;28;20028;-68
2021/06/12 05:07:16;;;;;;;30.88;17.65;;;;;;;16.06;55.04;101561.16;5075260;28;20142;-69
2021/06/12 05:09:42;;;;;;;36.15;16.90;;;;;;;16.15;54.93;101553.63;5082598;28;20043;-70
2021/06/12 05:12:08;;;;;;;31.92;16.98;;;;;;;16.48;54.38;101554.53;5064729;28;20106;-69
2021/06/12 05:14:34;;;;;;;30.23;16.42;;;;;;;16.50;53.96;101552.66;5088793;28;20112;-69
2021/06/12 05:17:02;;;;;;;28.25;15.70;;;;;;;16.70;53.40;101565.59;5075383;28;20205;-68
2021/06/12 05:19:28;;;;;;;31.77;16.42;;;;;;;16.61;53.52;101568.75;5075123;28;20038;-70
2021/06/12 05:21:54;;;;;;;31.08;14.95;;;;;;;16.76;53.52;101570.59;5081304;28;20488;-72
2021/06/12 05:24:19;;;;;;;29.15;14.48;;;;;;;16.71;53.39;101569.09;5072766;28;20400;-71
2021/06/12 05:26:44;;;;;;;25.55;13.90;;;;;;;16.71;53.15;101563.81;5076494;28;20032;-69
2021/06/12 05:29:10;;;;;;;24.58;11.57;;;;;;;16.23;53.42;101555.84;5075410;28;20024;-70
2021/06/12 05:31:36;;;;;;;18.65;11.05;;;;;;;16.55;53.19;101561.16;5074392;28;20465;-69
2021/06/12 05:34:02;;;;;;;17.92;11.02;;;;;;;16.85;51.85;101560.47;5081010;28;20031;-68
2021/06/12 05:36:28;;;;;;;27.33;11.35;;;;;;;17.01;51.76;101559.50;5078163;28;20119;-70
2021/06/12 05:38:53;;;;;;;13.13;8.77;;;;;;;16.87;51.57;101558.56;5077399;28;20032;-69
2021/06/12 05:41:18;;;;;;;13.57;7.28;;;;;;;16.74;51.50;101561.03;5087104;28;20037;-68
2021/06/12 05:43:44;;;;;;;12.57;7.22;;;;;;;16.86;50.87;101559.50;5073138;28;20417;-68
2021/06/12 05:46:09;;;;;;;17.88;7.05;;;;;;;17.20;50.22;101559.31;5071860;28;20032;-68
2021/06/12 05:48:35;;;;;;;11.10;5.85;;;;;;;17.13;49.82;101563.22;5078458;28;20031;-69
2021/06/12 05:51:01;;;;;;;9.25;6.22;;;;;;;17.20;49.65;101575.16;5075023;28;20063;-69
2021/06/12 05:53:26;;;;;;;7.22;4.47;;;;;;;16.99;49.48;101566.66;5081593;28;20760;-69
2021/06/12 05:55:52;;;;;;;9.07;4.85;;;;;;;16.91;48.91;101565.38;5075744;28;20066;-70
2021/06/12 05:58:18;;;;;;;8.27;5.00;;;;;;;16.88;49.40;101560.28;5076603;28;20091;-71
2021/06/12 06:00:44;;;;;;;7.22;4.75;;;;;;;17.06;48.81;101561.88;5072477;28;20199;-69
2021/06/12 06:03:09;;;;;;;13.02;5.15;;;;;;;17.22;47.79;101573.28;5061955;28;20047;-68
2021/06/12 06:05:35;;;;;;;6.35;4.78;;;;;;;17.28;48.68;101571.22;5074751;28;20032;-70
2021/06/12 06:08:00;;;;;;;7.75;4.05;;;;;;;17.53;47.81;101576.81;5079698;28;20024;-71
2021/06/12 06:10:26;;;;;;;9.88;4.35;;;;;;;17.65;47.74;101596.41;5075180;28;20028;-69
2021/06/12 06:12:51;;;;;;;8.98;4.05;;;;;;;17.85;46.85;101597.88;5075426;28;20067;-70
2021/06/12 06:15:17;;;;;;;8.63;4.25;;;;;;;17.70;46.99;101591.69;5075442;28;20107;-70
2021/06/12 06:17:43;;;;;;;7.07;4.30;;;;;;;17.37;47.70;101591.84;5074041;28;20174;-70
2021/06/12 06:20:11;;;;;;;11.75;4.82;;;;;;;16.87;49.08;101587.59;5072780;28;20036;-69
2021/06/12 06:22:37;;;;;;;6.82;3.90;;;;;;;17.46;47.09;101593.94;5077010;28;20563;-71
2021/06/12 06:25:04;;;;;;;12.55;5.13;;;;;;;17.55;46.40;101593.44;5074117;28;20036;-70
2021/06/12 06:27:30;;;;;;;10.27;4.53;;;;;;;17.22;47.28;101598.84;5077488;28;20043;-69
2021/06/12 06:29:55;;;;;;;11.45;3.85;;;;;;;16.89;47.28;101598.94;5076238;28;20036;-70
2021/06/12 06:32:21;;;;;;;8.30;3.50;;;;;;;16.95;47.66;101606.53;5074271;28;20074;-69
2021/06/12 06:34:46;;;;;;;9.20;4.50;;;;;;;17.23;46.62;101606.69;5058102;28;20040;-69
2021/06/12 06:37:12;;;;;;;12.52;4.25;;;;;;;17.41;46.32;101609.22;5075015;28;20024;-70
2021/06/12 06:39:37;;;;;;;10.57;5.32;;;;;;;16.67;47.51;101609.81;5072989;28;20097;-69
2021/06/12 06:42:03;;;;;;;5.95;3.78;;;;;;;16.73;47.50;101602.41;5079463;28;20402;-69
2021/06/12 06:44:29;;;;;;;7.97;4.10;;;;;;;17.12;47.19;101603.78;5077296;28;20071;-69
2021/06/12 06:46:55;;;;;;;7.63;4.32;;;;;;;17.06;46.42;101604.13;5086169;28;20031;-69
2021/06/12 06:49:20;;;;;;;7.50;3.78;;;;;;;16.90;46.99;101613.84;5074303;28;20036;-70
2021/06/12 06:51:46;;;;;;;8.68;3.67;;;;;;;16.60;46.98;101617.22;5072118;28;20029;-69
2021/06/12 06:54:12;;;;;;;16.02;4.22;;;;;;;16.82;46.12;101617.78;5070785;28;20048;-72
2021/06/12 06:56:37;;;;;;;6.70;2.40;;;;;;;16.90;46.16;101619.13;5072374;28;20048;-70
2021/06/12 06:59:03;;;;;;;7.32;3.25;;;;;;;16.93;46.10;101617.16;5072260;28;20059;-69
2021/06/12 07:01:29;;;;;;;17.33;3.30;;;;;;;16.79;46.30;101631.13;5076091;28;21030;-69
2021/06/12 07:03:55;;;;;;;4.78;2.78;;;;;;;16.66;46.29;101631.84;5073405;28;20036;-69
2021/06/12 07:06:20;;;;;;;9.60;3.35;;;;;;;17.37;45.04;101621.75;5074316;28;20031;-71
2021/06/12 07:08:46;;;;;;;10.05;3.70;;;;;;;17.62;44.89;101629.13;5088463;28;20054;-70
2021/06/12 07:11:11;;;;;;;11.10;3.00;;;;;;;18.34;43.69;101620.53;5074596;28;20041;-69
2021/06/12 07:13:37;;;;;;;6.30;2.97;;;;;;;18.15;43.42;101626.06;5075082;28;20035;-70
2021/06/12 07:16:04;;;;;;;10.45;3.70;;;;;;;18.93;41.90;101639.81;5081771;28;20039;-70
2021/06/12 07:18:29;;;;;;;7.25;3.38;;;;;;;19.76;40.72;101638.88;5074378;28;20630;-69
2021/06/12 07:20:55;;;;;;;7.25;2.28;;;;;;;20.09;39.35;101636.59;5074138;28;20040;-71
2021/06/12 07:23:20;;;;;;;5.03;2.05;;;;;;;19.77;38.96;101636.13;5071337;28;20044;-69
2021/06/12 07:25:47;;;;;;;6.65;1.98;;;;;;;18.83;39.87;101642.16;5068172;28;20041;-69
2021/06/12 07:28:14;;;;;;;5.50;1.77;;;;;;;18.47;41.39;101653.22;5072035;28;20032;-69
2021/06/12 07:30:40;;;;;;;4.38;1.63;;;;;;;17.98;41.89;101649.09;5073289;28;20059;-69
2021/06/12 07:33:10;;;;;;;3.30;1.80;;;;;;;18.07;41.22;101650.31;5071826;28;20037;-70
2021/06/12 07:35:36;;;;;;;4.43;1.27;;;;;;;18.99;39.32;101639.44;5058830;28;20032;-68
2021/06/12 07:38:03;;;;;;;3.97;0.98;;;;;;;19.81;37.73;101642.91;5072430;28;20101;-70
2021/06/12 07:40:28;;;;;;;2.63;1.10;;;;;;;19.65;36.93;101644.91;5056651;28;20032;-70
2021/06/12 07:42:54;;;;;;;7.10;0.70;;;;;;;18.98;36.30;101634.22;5078755;28;20432;-68
2021/06/12 07:45:19;;;;;;;4.07;0.77;;;;;;;19.39;34.48;101630.66;5071837;28;20075;-69
2021/06/12 07:47:45;;;;;;;4.32;0.47;;;;;;;19.61;34.09;101636.28;5072244;28;20043;-70
2021/06/12 07:50:11;;;;;;;3.17;0.85;;;;;;;19.49;36.22;101645.88;5061788;28;20040;-68
2021/06/12 07:52:36;;;;;;;2.42;0.70;;;;;;;19.77;34.75;101652.06;5069669;28;20635;-69
2021/06/12 07:55:03;;;;;;;1.45;0.40;;;;;;;19.54;33.19;101640.28;5070463;28;20505;-69
2021/06/12 07:57:28;;;;;;;4.03;1.02;;;;;;;20.07;33.50;101649.09;5073046;28;20075;-69
2021/06/12 07:59:54;;;;;;;2.35;0.63;;;;;;;19.78;34.85;101647.59;5076579;28;20036;-71
2021/06/12 08:02:19;;;;;;;3.63;0.63;;;;;;;19.53;34.10;101638.59;5070033;28;20064;-69
2021/06/12 08:04:45;;;;;;;5.00;0.57;;;;;;;19.04;35.00;101652.38;5068751;28;20055;-69
2021/06/12 08:07:12;;;;;;;4.32;0.60;;;;;;;19.06;34.77;101651.31;5070270;28;20032;-70
2021/06/12 08:09:38;;;;;;;3.35;0.30;;;;;;;19.19;34.57;101654.03;5067022;28;20040;-69
2021/06/12 08:12:04;;;;;;;1.45;0.38;;;;;;;18.97;35.52;101661.66;5072130;28;20063;-69
2021/06/12 08:14:30;;;;;;;4.10;0.50;;;;;;;19.01;35.68;101669.31;5070050;28;20037;-69
2021/06/12 08:16:55;;;;;;;3.92;0.45;;;;;;;18.18;36.83;101665.56;5070116;28;20067;-70
2021/06/12 08:19:21;;;;;;;4.50;0.50;;;;;;;18.36;35.60;101664.47;5052237;28;20032;-70
2021/06/12 08:21:46;;;;;;;5.63;0.63;;;;;;;18.35;36.45;101675.16;5074615;28;20059;-68
2021/06/12 08:24:12;;;;;;;7.18;0.70;;;;;;;18.73;35.40;101675.47;5071752;28;20040;-70
2021/06/12 08:26:37;;;;;;;3.38;0.50;;;;;;;19.33;34.76;101676.16;5081574;22;20400;-70
2021/06/12 08:29:03;;;;;;;2.25;0.52;;;;;;;19.99;33.35;101683.25;5031377;28;20039;-70
2021/06/12 08:31:29;;;;;;;4.40;0.40;;;;;;;19.41;34.69;101705.66;5050082;28;20020;-70
2021/06/12 08:33:54;;;;;;;1.00;0.30;;;;;;;18.67;35.74;101697.00;5047146;28;20044;-70
2021/06/12 08:36:20;;;;;;;2.40;0.38;;;;;;;20.58;33.08;101677.50;5010115;28;20033;-70
2021/06/12 08:38:45;;;;;;;2.42;0.60;;;;;;;20.45;31.75;101680.16;5041996;28;20422;-70
2021/06/12 08:41:11;;;;;;;3.90;0.22;;;;;;;20.59;32.05;101686.31;5028941;28;20080;-70
2021/06/12 08:43:37;;;;;;;3.92;0.77;;;;;;;21.58;29.93;101685.44;5044973;28;20055;-70
2021/06/12 08:46:03;;;;;;;2.42;0.80;;;;;;;21.07;30.27;101681.16;5047763;28;20039;-70
2021/06/12 08:48:29;;;;;;;2.75;0.52;;;;;;;20.57;31.15;101685.56;5043835;28;20391;-70
2021/06/12 08:50:55;;;;;;;3.30;0.50;;;;;;;21.32;30.77;101699.69;5047919;28;20037;-69
2021/06/12 08:53:21;;;;;;;2.28;0.82;;;;;;;20.64;31.41;101692.13;5046137;28;20024;-70
2021/06/12 08:55:47;;;;;;;4.90;0.30;;;;;;;20.70;31.58;101689.06;5043020;28;20021;-70
2021/06/12 08:58:14;;;;;;;1.77;0.73;;;;;;;20.96;30.80;101694.38;5041479;28;20404;-71
2021/06/12 09:00:41;;;;;;;2.80;0.60;;;;;;;21.98;30.87;101702.78;5026852;28;20040;-70
2021/06/12 09:03:24;;;;;;;7.97;0.85;;;;;;;21.95;29.88;101694.19;5049137;28;20044;-71
2021/06/12 09:05:58;;;;;;;3.60;0.50;;;;;;;22.41;29.21;101706.66;5049134;28;20037;-70
2021/06/12 09:08:29;;;;;;;3.95;0.40;;;;;;;22.18;30.16;101706.63;5049493;28;20032;-72
2021/06/12 09:10:57;;;;;;;4.68;0.68;;;;;;;22.25;30.12;101707.00;5049519;28;20048;-70
2021/06/12 09:13:42;;;;;;;2.63;0.38;;;;;;;21.74;30.88;101712.63;5031442;28;20175;-70
2021/06/12 09:16:36;;;;;;;1.67;0.40;;;;;;;21.33;29.99;101714.69;5051233;28;20033;-70
2021/06/12 09:19:17;;;;;;;5.93;0.43;;;;;;;21.59;30.39;101722.59;5051300;28;20028;-71
2021/06/12 09:21:46;;;;;;;4.57;0.43;;;;;;;21.46;29.83;101729.72;5049375;28;20037;-70
2021/06/12 09:24:27;;;;;;;3.97;0.77;;;;;;;20.18;31.78;101724.50;5028967;28;20099;-71
2021/06/12 09:27:03;;;;;;;0.65;0.35;;;;;;;22.09;30.09;101725.97;5047566;28;20051;-70
2021/06/12 09:29:43;;;;;;;3.53;0.40;;;;;;;20.75;31.53;101724.09;5047288;28;20090;-69
2021/06/12 09:32:14;;;;;;;2.10;0.30;;;;;;;21.32;30.00;101736.06;5051655;28;20025;-69
2021/06/12 09:34:42;;;;;;;2.50;0.30;;;;;;;21.13;31.92;101736.53;5052327;28;20033;-69
2021/06/12 09:37:13;;;;;;;1.23;0.30;;;;;;;20.37;31.70;101740.88;5046508;28;20274;-68
2021/06/12 09:39:39;;;;;;;3.20;0.40;;;;;;;21.23;31.29;101729.59;5028774;28;20037;-70
2021/06/12 09:42:05;;;;;;;5.05;0.70;;;;;;;20.84;31.01;101739.47;5050023;28;20041;-72
2021/06/12 09:44:36;;;;;;;3.42;0.52;;;;;;;21.56;29.94;101730.78;5047563;28;20044;-70
2021/06/12 09:47:11;;;;;;;2.83;0.50;;;;;;;21.63;29.73;101729.38;5051078;28;20470;-71
2021/06/12 09:49:38;;;;;;;3.72;0.32;;;;;;;20.44;31.29;101739.53;5048973;28;20086;-70
2021/06/12 09:52:12;;;;;;;4.13;0.30;;;;;;;21.09;30.66;101743.03;5031332;28;20083;-71
2021/06/12 09:54:40;;;;;;;1.90;0.47;;;;;;;21.28;30.22;101737.22;5048971;28;20048;-70
2021/06/12 09:57:08;;;;;;;1.38;0.57;;;;;;;20.76;30.74;101747.06;5047756;28;20261;-71
2021/06/12 09:59:42;;;;;;;5.35;0.60;;;;;;;20.40;30.98;101745.16;5020536;28;20031;-73
2021/06/12 10:02:09;;;;;;;6.13;0.90;;;;;;;20.20;31.78;101749.13;5031129;28;20044;-69
2021/06/12 10:04:34;;;;;;;1.95;0.65;;;;;;;21.12;30.24;101742.81;5047673;28;20025;-70
2021/06/12 10:07:00;;;;;;;2.38;0.80;;;;;;;21.94;30.21;101748.38;5029406;28;20037;-70
2021/06/12 10:09:26;;;;;;;4.95;0.30;;;;;;;22.65;29.31;101753.66;5030560;28;20116;-69
2021/06/12 10:11:54;;;;;;;1.73;0.30;;;;;;;22.72;29.05;101758.44;5047418;28;20013;-70
2021/06/12 10:14:20;;;;;;;1.38;0.40;;;;;;;22.07;30.60;101745.63;5048953;28;20037;-70
2021/06/12 10:16:47;;;;;;;5.13;0.60;;;;;;;21.56;30.56;101738.78;5048517;28;20048;-70
2021/06/12 10:19:17;;;;;;;2.05;0.40;;;;;;;21.29;29.42;101758.41;5046568;28;20405;-70
2021/06/12 10:21:44;;;;;;;9.85;0.60;;;;;;;20.92;29.55;101747.72;5032335;28;20033;-70
2021/06/12 10:24:10;;;;;;;2.25;0.40;;;;;;;21.44;29.01;101743.13;5048431;28;20602;-71
2021/06/12 10:26:36;;;;;;;6.28;0.50;;;;;;;22.23;28.61;101734.72;5048008;28;20095;-72
2021/06/12 10:29:04;;;;;;;1.17;0.30;;;;;;;21.66;29.46;101737.13;5033680;28;20044;-72
2021/06/12 10:31:34;;;;;;;1.65;0.20;;;;;;;21.21;28.37;101741.31;5050426;28;20013;-71
2021/06/12 10:34:00;;;;;;;1.20;0.30;;;;;;;20.47;28.79;101741.97;5028330;28;20098;-72
2021/06/12 10:36:28;;;;;;;5.68;0.63;;;;;;;20.42;28.94;101754.72;5046163;28;20039;-71
2021/06/12 10:38:55;;;;;;;0.68;0.35;;;;;;;20.68;28.63;101749.41;5048604;28;20524;-70
2021/06/12 10:41:33;;;;;;;1.38;0.20;;;;;;;20.88;28.26;101751.53;5048270;28;20426;-72
2021/06/12 10:44:03;;;;;;;2.10;0.30;;;;;;;21.38;27.14;101764.00;5045656;28;20522;-72
2021/06/12 10:46:31;;;;;;;2.05;0.30;;;;;;;20.64;28.67;101750.56;5030279;28;20036;-71
2021/06/12 10:49:02;;;;;;;5.60;0.32;;;;;;;21.26;29.57;101761.25;5046188;28;20044;-71
2021/06/12 10:51:28;;;;;;;1.75;0.55;;;;;;;21.13;29.71;101760.44;5045079;28;20028;-72
2021/06/12 10:54:12;;;;;;;3.60;0.70;;;;;;;20.40;30.50;101766.41;5049163;28;20036;-71
2021/06/12 10:56:38;;;;;;;6.30;1.10;;;;;;;19.74;32.87;101768.94;5030942;28;20507;-73
2021/06/12 10:59:06;;;;;;;4.15;1.05;;;;;;;19.18;34.51;101779.53;5049036;28;20109;-71
2021/06/12 11:01:32;;;;;;;4.20;0.90;;;;;;;18.34;35.61;101772.25;5028697;28;20040;-71
2021/06/12 11:04:08;;;;;;;2.83;0.38;;;;;;;18.34;36.12;101780.19;5051802;28;20028;-71
2021/06/12 11:06:51;;;;;;;4.85;0.40;;;;;;;17.95;35.96;101778.84;5032437;28;20041;-71
2021/06/12 11:09:20;;;;;;;5.45;1.10;;;;;;;19.22;34.25;101785.50;5050869;28;20041;-70
2021/06/12 11:11:46;;;;;;;6.45;2.88;;;;;;;19.96;33.15;101796.72;5016481;28;20071;-71
2021/06/12 11:14:33;;;;;;;14.27;6.03;;;;;;;18.73;33.33;101791.13;5049106;28;20032;-71
2021/06/12 11:17:05;;;;;;;4.82;2.42;;;;;;;18.47;33.71;101801.47;5023972;28;20032;-70
2021/06/12 11:19:42;;;;;;;8.00;2.85;;;;;;;18.15;34.68;101805.97;5049761;28;20037;-71